createdAt,value
2019-03-28T00:01:34.928Z,10.40
2019-03-28T00:04:03.203Z,10.57
2019-03-28T00:06:31.505Z,9.97
2019-03-28T00:08:59.862Z,10.97
2019-03-28T00:11:28.488Z,10.33
2019-03-28T00:13:56.437Z,10.63
2019-03-28T00:16:24.767Z,10.67
2019-03-28T00:18:53.261Z,10.87
2019-03-28T00:21:22.208Z,10.90
2019-03-28T00:24:24.779Z,11.20
2019-03-28T00:26:52.824Z,11.07
2019-03-28T00:29:21.048Z,10.20
2019-03-28T00:31:49.716Z,10.30
2019-03-28T00:34:17.639Z,11.70
2019-03-28T00:36:46.266Z,11.33
2019-03-28T00:39:15.273Z,10.80
2019-03-28T00:41:43.719Z,10.53
2019-03-28T00:44:12.222Z,11.07
2019-03-28T00:46:40.190Z,11.03
2019-03-28T00:49:08.134Z,10.80
2019-03-28T00:51:36.650Z,10.00
2019-03-28T00:54:04.920Z,11.47
2019-03-28T00:56:46.401Z,10.90
2019-03-28T00:59:04.334Z,11.10
2019-03-28T01:01:32.346Z,10.10
2019-03-28T01:04:01.306Z,11.47
2019-03-28T01:06:29.979Z,11.10
2019-03-28T01:08:58.694Z,10.80
2019-03-28T01:11:26.948Z,10.90
2019-03-28T01:13:55.523Z,11.77
2019-03-28T01:16:23.503Z,11.00
2019-03-28T01:18:51.837Z,10.70
2019-03-28T01:21:20.455Z,10.90
2019-03-28T01:23:48.723Z,11.77
2019-03-28T01:26:17.350Z,11.70
2019-03-28T01:28:46.065Z,11.93
2019-03-28T01:31:14.698Z,11.63
2019-03-28T01:33:43.353Z,12.63
2019-03-28T01:36:11.966Z,12.23
2019-03-28T01:38:40.282Z,11.90
2019-03-28T01:41:08.844Z,11.50
2019-03-28T01:43:37.147Z,11.47
2019-03-28T01:46:05.486Z,11.33
2019-03-28T01:48:33.795Z,12.53
2019-03-28T01:51:02.443Z,12.13
2019-03-28T01:53:30.556Z,12.00
2019-03-28T01:55:58.491Z,11.70
2019-03-28T01:58:27.060Z,11.97
2019-03-28T02:00:56.030Z,11.80
2019-03-28T02:03:23.974Z,11.73
2019-03-28T02:05:52.814Z,12.17
2019-03-28T02:08:21.179Z,12.53
2019-03-28T02:10:49.396Z,13.13
2019-03-28T02:13:17.828Z,13.03
2019-03-28T02:15:45.769Z,12.03
2019-03-28T02:18:14.010Z,12.23
2019-03-28T02:20:42.335Z,12.90
2019-03-28T02:23:10.478Z,13.57
2019-03-28T02:25:38.954Z,13.90
2019-03-28T02:28:07.914Z,14.93
2019-03-28T02:30:35.858Z,14.97
2019-03-28T02:33:04.174Z,14.60
2019-03-28T02:35:32.383Z,15.40
2019-03-28T02:38:00.826Z,14.03
2019-03-28T02:40:29.158Z,13.90
2019-03-28T02:42:57.149Z,14.00
2019-03-28T02:45:25.857Z,14.83
2019-03-28T02:47:53.836Z,14.10
2019-03-28T02:50:22.805Z,15.90
2019-03-28T02:52:50.730Z,14.63
2019-03-28T02:55:19.060Z,14.80
2019-03-28T02:57:47.637Z,13.83
2019-03-28T03:00:16.277Z,14.40
2019-03-28T03:02:44.745Z,14.00
2019-03-28T03:05:13.251Z,16.30
2019-03-28T03:07:41.922Z,15.67
2019-03-28T03:10:10.761Z,15.90
2019-03-28T03:12:39.087Z,15.47
2019-03-28T03:15:07.332Z,15.57
2019-03-28T03:17:35.288Z,15.53
2019-03-28T03:20:03.669Z,15.80
2019-03-28T03:22:32.350Z,16.00
2019-03-28T03:25:00.338Z,16.90
2019-03-28T03:27:29.112Z,15.70
2019-03-28T03:29:57.350Z,16.77
2019-03-28T03:32:25.273Z,16.30
2019-03-28T03:34:53.572Z,16.57
2019-03-28T03:37:21.490Z,14.83
2019-03-28T03:39:49.997Z,15.60
2019-03-28T03:42:18.189Z,15.20
2019-03-28T03:44:46.408Z,15.83
2019-03-28T03:47:14.782Z,15.17
2019-03-28T03:49:43.064Z,16.00
2019-03-28T03:52:12.100Z,15.60
2019-03-28T03:54:40.363Z,15.50
2019-03-28T03:57:08.606Z,17.13
2019-03-28T03:59:37.439Z,15.50
2019-03-28T04:02:06.318Z,15.60
2019-03-28T04:04:34.595Z,17.00
2019-03-28T04:07:03.199Z,16.27
2019-03-28T04:09:31.834Z,16.60
2019-03-28T04:12:00.334Z,16.43
2019-03-28T04:14:28.719Z,16.47
2019-03-28T04:16:57.301Z,15.43
2019-03-28T04:19:25.580Z,16.10
2019-03-28T04:21:53.863Z,18.90
2019-03-28T04:24:21.998Z,18.20
2019-03-28T04:26:50.887Z,18.40
2019-03-28T04:29:19.708Z,18.03
2019-03-28T04:31:48.362Z,17.37
2019-03-28T04:34:16.920Z,18.30
2019-03-28T04:36:45.552Z,19.17
2019-03-28T04:39:14.139Z,18.27
2019-03-28T04:41:42.073Z,18.47
2019-03-28T04:44:10.322Z,18.33
2019-03-28T04:46:38.270Z,18.93
2019-03-28T04:49:06.847Z,19.60
2019-03-28T04:51:34.784Z,17.90
2019-03-28T04:54:03.532Z,16.77
2019-03-28T04:56:31.833Z,18.37
2019-03-28T04:58:59.753Z,18.97
2019-03-28T05:01:27.705Z,18.33
2019-03-28T05:03:55.984Z,18.97
2019-03-28T05:06:24.356Z,19.33
2019-03-28T05:08:53.116Z,18.60
2019-03-28T05:11:21.054Z,19.73
2019-03-28T05:13:49.285Z,19.97
2019-03-28T05:16:17.805Z,21.07
2019-03-28T05:18:46.163Z,20.27
2019-03-28T05:21:14.085Z,19.50
2019-03-28T05:23:42.777Z,19.10
2019-03-28T05:26:11.098Z,20.40
2019-03-28T05:28:39.507Z,19.13
2019-03-28T05:31:08.340Z,20.27
2019-03-28T05:33:36.473Z,20.50
2019-03-28T05:36:04.907Z,20.90
2019-03-28T05:38:32.856Z,19.73
2019-03-28T05:41:01.125Z,19.83
2019-03-28T05:43:29.515Z,19.10
2019-03-28T05:45:57.884Z,18.10
2019-03-28T05:48:26.145Z,18.50
2019-03-28T05:50:54.378Z,18.90
2019-03-28T05:53:22.938Z,19.27
2019-03-28T05:55:51.296Z,19.33
2019-03-28T05:58:19.224Z,19.63
2019-03-28T06:00:51.072Z,20.47
2019-03-28T06:03:16.839Z,19.37
2019-03-28T06:05:44.778Z,20.63
2019-03-28T06:08:13.071Z,19.97
2019-03-28T06:10:41.733Z,19.50
2019-03-28T06:13:10.281Z,20.37
2019-03-28T06:15:40.918Z,22.00
2019-03-28T06:18:08.112Z,21.70
2019-03-28T06:20:36.561Z,21.20
2019-03-28T06:23:04.495Z,21.20
2019-03-28T06:25:33.196Z,20.33
2019-03-28T06:28:02.187Z,19.73
2019-03-28T06:30:30.840Z,20.60
2019-03-28T06:32:59.247Z,19.90
2019-03-28T06:35:27.237Z,19.60
2019-03-28T06:37:55.497Z,21.83
2019-03-28T06:40:23.491Z,22.40
2019-03-28T06:42:52.032Z,22.43
2019-03-28T06:45:19.972Z,21.90
2019-03-28T06:47:48.605Z,22.70
2019-03-28T06:50:17.083Z,22.13
2019-03-28T06:52:46.436Z,23.30
2019-03-28T06:55:14.769Z,22.23
2019-03-28T06:57:43.074Z,21.10
2019-03-28T07:00:11.108Z,22.07
2019-03-28T07:02:39.325Z,22.33
2019-03-28T07:05:07.622Z,22.83
2019-03-28T07:07:35.578Z,22.97
2019-03-28T07:10:03.662Z,23.13
2019-03-28T07:12:31.882Z,22.33
2019-03-28T07:14:59.863Z,22.90
2019-03-28T07:17:28.104Z,21.57
2019-03-28T07:19:56.270Z,23.83
2019-03-28T07:22:25.268Z,24.50
2019-03-28T07:24:53.785Z,25.13
2019-03-28T07:27:22.307Z,27.03
2019-03-28T07:29:51.448Z,29.40
2019-03-28T07:32:19.850Z,26.93
2019-03-28T07:34:47.861Z,26.43
2019-03-28T07:37:16.472Z,24.97
2019-03-28T07:39:45.044Z,26.63
2019-03-28T07:42:13.550Z,24.60
2019-03-28T07:44:42.116Z,25.07
2019-03-28T07:47:10.454Z,24.10
2019-03-28T07:49:38.487Z,24.03
2019-03-28T07:52:06.437Z,26.50
2019-03-28T07:54:34.633Z,26.03
2019-03-28T07:57:03.123Z,26.80
2019-03-28T07:59:32.697Z,25.90
2019-03-28T08:02:01.109Z,24.57
2019-03-28T08:04:29.603Z,24.70
2019-03-28T08:06:58.224Z,23.53
2019-03-28T08:09:36.533Z,24.23
2019-03-28T08:11:57.156Z,23.50
2019-03-28T08:14:25.766Z,24.47
2019-03-28T08:16:54.336Z,24.93
2019-03-28T08:19:22.630Z,24.43
2019-03-28T08:21:51.213Z,23.63
2019-03-28T08:24:19.789Z,24.33
2019-03-28T08:26:48.239Z,23.27
2019-03-28T08:29:16.737Z,25.10
2019-03-28T08:31:46.618Z,23.10
2019-03-28T08:34:15.094Z,23.90
2019-03-28T08:36:43.737Z,23.73
2019-03-28T08:39:12.337Z,31.00
2019-03-28T08:41:41.354Z,33.00
2019-03-28T08:44:10.677Z,25.37
2019-03-28T08:46:39.323Z,23.43
2019-03-28T08:49:07.990Z,24.27
2019-03-28T08:51:35.927Z,24.10
2019-03-28T08:54:04.419Z,23.60
2019-03-28T08:56:32.704Z,23.47
2019-03-28T08:59:00.933Z,24.47
2019-03-28T09:01:29.460Z,24.10
2019-03-28T09:03:58.138Z,25.57
2019-03-28T09:06:26.598Z,28.47
2019-03-28T09:08:54.945Z,25.37
2019-03-28T09:11:23.546Z,26.40
2019-03-28T09:13:52.007Z,25.20
2019-03-28T09:16:19.953Z,25.47
2019-03-28T09:18:48.199Z,25.27
2019-03-28T09:21:16.147Z,24.33
2019-03-28T09:23:44.970Z,25.50
2019-03-28T09:26:12.913Z,25.70
2019-03-28T09:28:41.469Z,25.50
2019-03-28T09:31:19.936Z,25.50
2019-03-28T09:33:40.964Z,24.53
2019-03-28T09:36:09.064Z,24.50
2019-03-28T09:38:37.369Z,26.03
2019-03-28T09:41:06.261Z,25.10
2019-03-28T09:43:34.266Z,26.30
2019-03-28T09:46:02.539Z,24.53
2019-03-28T09:48:30.732Z,25.60
2019-03-28T09:51:00.315Z,25.03
2019-03-28T09:53:28.713Z,25.90
2019-03-28T09:55:56.626Z,24.57
2019-03-28T09:58:25.145Z,24.93
2019-03-28T10:01:02.866Z,23.33
2019-03-28T10:03:23.985Z,23.47
2019-03-28T10:05:52.199Z,24.33
2019-03-28T10:08:20.413Z,24.47
2019-03-28T10:10:48.894Z,24.60
2019-03-28T10:13:17.005Z,25.10
2019-03-28T10:15:45.212Z,24.17
2019-03-28T10:18:13.956Z,23.90
2019-03-28T10:20:42.252Z,24.27
2019-03-28T10:23:10.178Z,24.00
2019-03-28T10:25:38.618Z,24.00
2019-03-28T10:28:06.544Z,24.20
2019-03-28T10:30:39.290Z,23.87
2019-03-28T10:33:07.210Z,23.20
2019-03-28T10:35:35.166Z,22.60
2019-03-28T10:38:03.444Z,21.60
2019-03-28T10:40:31.643Z,23.50
2019-03-28T10:42:59.884Z,22.27
2019-03-28T10:45:28.237Z,22.27
2019-03-28T10:47:56.176Z,22.43
2019-03-28T10:50:24.197Z,21.23
2019-03-28T10:52:52.479Z,22.73
2019-03-28T10:55:20.555Z,20.87
2019-03-28T10:57:48.557Z,21.50
2019-03-28T11:00:24.141Z,20.50
2019-03-28T11:02:46.635Z,21.30
2019-03-28T11:05:15.168Z,20.10
2019-03-28T11:07:43.726Z,18.53
2019-03-28T11:10:11.793Z,18.00
2019-03-28T11:12:40.359Z,17.67
2019-03-28T11:15:08.359Z,16.40
2019-03-28T11:17:36.949Z,16.97
2019-03-28T11:20:05.528Z,15.07
2019-03-28T11:22:33.895Z,15.70
2019-03-28T11:25:02.453Z,14.77
2019-03-28T11:27:30.744Z,15.13
2019-03-28T11:29:59.539Z,15.10
2019-03-28T11:32:28.118Z,15.00
2019-03-28T11:34:56.054Z,15.07
2019-03-28T11:37:26.310Z,14.80
2019-03-28T11:39:55.321Z,13.83
2019-03-28T11:42:23.245Z,13.80
2019-03-28T11:44:51.973Z,12.33
2019-03-28T11:47:22.227Z,11.90
2019-03-28T11:49:50.786Z,10.50
2019-03-28T11:52:19.011Z,10.70
2019-03-28T11:54:47.538Z,12.90
2019-03-28T11:57:16.069Z,12.43
2019-03-28T11:59:44.400Z,11.10
2019-03-28T12:02:19.601Z,9.57
2019-03-28T12:04:43.373Z,10.13
2019-03-28T12:07:11.638Z,12.07
2019-03-28T12:09:39.861Z,11.47
2019-03-28T12:12:08.750Z,12.70
2019-03-28T12:14:37.345Z,11.17
2019-03-28T12:17:05.333Z,11.80
2019-03-28T12:19:34.195Z,12.50
2019-03-28T12:22:02.142Z,12.57
2019-03-28T12:24:30.770Z,12.30
2019-03-28T12:26:59.097Z,14.00
2019-03-28T12:29:27.749Z,13.43
2019-03-28T12:31:56.161Z,13.90
2019-03-28T12:34:24.725Z,13.23
2019-03-28T12:36:53.359Z,13.97
2019-03-28T12:39:22.001Z,13.30
2019-03-28T12:41:50.193Z,15.67
2019-03-28T12:44:18.464Z,15.23
2019-03-28T12:46:46.972Z,14.93
2019-03-28T12:49:15.301Z,14.63
2019-03-28T12:51:43.548Z,14.27
2019-03-28T12:54:11.460Z,13.80
2019-03-28T12:56:39.753Z,14.20
2019-03-28T12:59:07.998Z,14.10
2019-03-28T13:01:37.561Z,14.00
2019-03-28T13:04:05.941Z,13.27
2019-03-28T13:06:34.182Z,13.50
2019-03-28T13:09:02.217Z,14.37
2019-03-28T13:11:30.144Z,12.63
2019-03-28T13:13:59.156Z,13.97
2019-03-28T13:16:28.023Z,15.67
2019-03-28T13:18:56.523Z,14.70
2019-03-28T13:21:24.736Z,15.13
2019-03-28T13:23:52.666Z,16.27
2019-03-28T13:26:21.446Z,14.13
2019-03-28T13:28:49.391Z,13.60
2019-03-28T13:31:17.581Z,13.90
2019-03-28T13:33:46.244Z,14.93
2019-03-28T13:36:14.754Z,13.70
2019-03-28T13:38:42.946Z,13.23
2019-03-28T13:41:11.501Z,14.57
2019-03-28T13:43:39.786Z,14.43
2019-03-28T13:46:07.970Z,14.27
2019-03-28T13:48:36.436Z,13.80
2019-03-28T13:51:04.450Z,13.70
2019-03-28T13:53:39.418Z,15.50
2019-03-28T13:56:02.414Z,14.50
2019-03-28T13:58:30.874Z,14.40
2019-03-28T14:00:59.050Z,14.10
2019-03-28T14:03:27.302Z,13.60
2019-03-28T14:05:55.878Z,14.07
2019-03-28T14:08:24.453Z,14.10
2019-03-28T14:10:52.775Z,14.50
2019-03-28T14:13:21.847Z,14.80
2019-03-28T14:15:50.141Z,14.70
2019-03-28T14:18:18.158Z,16.10
2019-03-28T14:20:46.368Z,14.80
2019-03-28T14:23:14.874Z,14.40
2019-03-28T14:25:43.363Z,15.07
2019-03-28T14:28:12.390Z,15.17
2019-03-28T14:30:41.115Z,15.43
2019-03-28T14:33:11.609Z,14.50
2019-03-28T14:35:39.614Z,14.43
2019-03-28T14:38:07.881Z,14.50
2019-03-28T14:40:36.388Z,14.50
2019-03-28T14:43:04.666Z,14.63
2019-03-28T14:45:33.231Z,14.20
2019-03-28T14:48:01.143Z,15.37
2019-03-28T14:50:33.267Z,14.03
2019-03-28T14:53:01.971Z,14.00
2019-03-28T14:55:30.125Z,13.93
2019-03-28T14:57:58.935Z,13.50
2019-03-28T15:00:46.980Z,14.20
2019-03-28T15:03:25.699Z,14.53
2019-03-28T15:05:45.269Z,13.00
2019-03-28T15:08:13.538Z,15.37
2019-03-28T15:10:42.209Z,13.70
2019-03-28T15:13:10.611Z,14.83
2019-03-28T15:15:39.251Z,14.57
2019-03-28T15:18:07.317Z,14.23
2019-03-28T15:20:35.349Z,13.97
2019-03-28T15:23:03.614Z,16.10
2019-03-28T15:25:32.409Z,14.90
2019-03-28T15:28:00.600Z,15.03
2019-03-28T15:30:29.828Z,14.50
2019-03-28T15:32:59.178Z,14.87
2019-03-28T15:35:27.711Z,15.80
2019-03-28T15:37:56.109Z,13.50
2019-03-28T15:40:24.049Z,14.60
2019-03-28T15:42:52.281Z,14.53
2019-03-28T15:45:20.218Z,14.00
2019-03-28T15:47:51.845Z,14.90
2019-03-28T15:50:19.701Z,14.20
2019-03-28T15:52:47.963Z,14.60
2019-03-28T15:55:16.834Z,14.73
2019-03-28T15:57:45.582Z,14.90
2019-03-28T16:00:13.928Z,14.73
2019-03-28T16:02:42.169Z,16.00
2019-03-28T16:05:10.098Z,15.00
2019-03-28T16:07:38.043Z,14.07
2019-03-28T16:10:06.255Z,13.60
2019-03-28T16:12:34.700Z,13.40
2019-03-28T16:15:02.657Z,14.70
2019-03-28T16:17:31.295Z,14.63
2019-03-28T16:19:59.214Z,14.07
2019-03-28T16:22:27.776Z,14.80
2019-03-28T16:24:55.700Z,14.33
2019-03-28T16:27:23.662Z,15.00
2019-03-28T16:29:54.243Z,14.57
2019-03-28T16:32:21.573Z,14.63
2019-03-28T16:34:50.213Z,15.10
2019-03-28T16:37:18.433Z,14.80
2019-03-28T16:39:49.711Z,15.33
2019-03-28T16:42:16.957Z,15.40
2019-03-28T16:44:45.187Z,14.80
2019-03-28T16:47:13.105Z,14.90
2019-03-28T16:49:41.684Z,14.97
2019-03-28T16:52:09.946Z,15.03
2019-03-28T16:54:38.207Z,13.87
2019-03-28T16:57:06.708Z,14.90
2019-03-28T16:59:35.371Z,17.03
2019-03-28T17:02:03.289Z,18.10
2019-03-28T17:04:31.861Z,15.90
2019-03-28T17:07:00.298Z,15.40
2019-03-28T17:09:29.018Z,15.67
2019-03-28T17:11:56.950Z,15.60
2019-03-28T17:14:26.282Z,15.87
2019-03-28T17:16:54.395Z,14.93
2019-03-28T17:19:23.010Z,15.57
2019-03-28T17:21:51.494Z,15.23
2019-03-28T17:24:20.110Z,14.50
2019-03-28T17:26:48.425Z,15.80
2019-03-28T17:29:17.086Z,16.83
2019-03-28T17:31:45.304Z,17.20
2019-03-28T17:34:13.913Z,15.37
2019-03-28T17:36:42.203Z,15.70
2019-03-28T17:39:10.451Z,16.07
2019-03-28T17:41:38.754Z,15.60
2019-03-28T17:44:07.870Z,15.77
2019-03-28T17:46:37.487Z,16.10
2019-03-28T17:49:05.896Z,15.87
2019-03-28T17:51:34.428Z,15.13
2019-03-28T17:54:04.016Z,16.43
2019-03-28T17:56:32.312Z,16.53
2019-03-28T17:59:00.327Z,16.47
2019-03-28T18:01:29.093Z,15.87
2019-03-28T18:03:57.417Z,17.10
2019-03-28T18:06:25.947Z,15.80
2019-03-28T18:08:54.593Z,16.70
2019-03-28T18:11:23.454Z,16.47
2019-03-28T18:13:51.433Z,16.30
2019-03-28T18:16:19.954Z,16.53
2019-03-28T18:18:48.640Z,15.77
2019-03-28T18:21:16.921Z,17.37
2019-03-28T18:23:45.193Z,15.17
2019-03-28T18:26:13.214Z,15.40
2019-03-28T18:28:41.138Z,14.33
2019-03-28T18:31:09.441Z,15.10
2019-03-28T18:33:37.356Z,16.70
2019-03-28T18:36:05.662Z,18.00
2019-03-28T18:38:33.587Z,17.50
2019-03-28T18:41:02.215Z,16.00
2019-03-28T18:43:30.790Z,15.50
2019-03-28T18:45:59.843Z,15.83
2019-03-28T18:48:35.824Z,16.07
2019-03-28T18:50:58.697Z,15.33
2019-03-28T18:53:26.586Z,16.00
2019-03-28T18:55:55.778Z,14.27
2019-03-28T18:58:24.496Z,14.37
2019-03-28T19:00:52.434Z,14.83
2019-03-28T19:03:20.685Z,14.70
2019-03-28T19:05:49.045Z,15.60
2019-03-28T19:08:17.345Z,13.83
2019-03-28T19:10:45.934Z,14.43
2019-03-28T19:13:14.552Z,14.33
2019-03-28T19:15:42.759Z,14.67
2019-03-28T19:18:11.060Z,14.53
2019-03-28T19:20:39.954Z,15.83
2019-03-28T19:23:07.935Z,14.80
2019-03-28T19:25:36.746Z,14.33
2019-03-28T19:28:07.674Z,16.33
2019-03-28T19:30:35.379Z,14.70
2019-03-28T19:33:06.616Z,14.77
2019-03-28T19:35:34.923Z,15.43
2019-03-28T19:38:03.136Z,14.37
2019-03-28T19:40:31.163Z,14.93
2019-03-28T19:42:59.111Z,14.17
2019-03-28T19:45:32.095Z,13.70
2019-03-28T19:48:00.827Z,14.90
2019-03-28T19:50:30.016Z,16.13
2019-03-28T19:52:58.340Z,16.10
2019-03-28T19:55:26.541Z,17.00
2019-03-28T19:57:55.072Z,16.90
2019-03-28T20:00:23.645Z,16.83
2019-03-28T20:02:52.128Z,15.97
2019-03-28T20:05:20.813Z,16.97
2019-03-28T20:07:50.068Z,17.43
2019-03-28T20:10:18.732Z,18.10
2019-03-28T20:12:47.492Z,17.73
2019-03-28T20:15:15.716Z,17.63
2019-03-28T20:17:44.234Z,18.43
2019-03-28T20:20:12.546Z,17.10
2019-03-28T20:22:41.106Z,16.90
2019-03-28T20:25:09.247Z,16.90
2019-03-28T20:27:37.966Z,19.50
2019-03-28T20:30:06.403Z,18.53
2019-03-28T20:32:34.676Z,18.20
2019-03-28T20:35:02.713Z,16.73
2019-03-28T20:37:31.442Z,17.43
2019-03-28T20:39:59.644Z,17.00
2019-03-28T20:42:28.252Z,17.13
2019-03-28T20:44:56.841Z,17.60
2019-03-28T20:47:24.900Z,18.53
2019-03-28T20:49:53.234Z,17.63
2019-03-28T20:52:21.858Z,17.70
2019-03-28T20:54:50.637Z,16.87
2019-03-28T20:57:18.911Z,18.30
2019-03-28T20:59:47.540Z,18.70
2019-03-28T21:02:16.145Z,18.50
2019-03-28T21:04:44.386Z,18.50
2019-03-28T21:07:13.940Z,17.70
2019-03-28T21:09:42.285Z,19.40
2019-03-28T21:12:10.202Z,20.77
2019-03-28T21:14:38.845Z,19.67
2019-03-28T21:17:06.768Z,20.10
2019-03-28T21:19:35.651Z,19.90
2019-03-28T21:22:05.840Z,19.60
2019-03-28T21:24:33.565Z,19.17
2019-03-28T21:27:01.780Z,20.40
2019-03-28T21:29:29.701Z,21.17
2019-03-28T21:31:58.611Z,20.97
2019-03-28T21:34:27.113Z,20.83
2019-03-28T21:36:55.056Z,20.67
2019-03-28T21:39:23.327Z,20.50
2019-03-28T21:41:51.853Z,20.83
2019-03-28T21:44:19.769Z,21.20
2019-03-28T21:46:48.431Z,23.00
2019-03-28T21:49:16.614Z,22.33
2019-03-28T21:51:46.080Z,21.07
2019-03-28T21:54:14.949Z,22.00
2019-03-28T21:56:43.336Z,22.30
2019-03-28T21:59:11.586Z,21.47
2019-03-28T22:01:39.526Z,22.33
2019-03-28T22:04:08.991Z,22.50
2019-03-28T22:06:43.043Z,22.17
2019-03-28T22:09:07.340Z,21.53
2019-03-28T22:11:35.259Z,22.67
2019-03-28T22:14:03.189Z,22.83
2019-03-28T22:16:31.132Z,23.57
2019-03-28T22:18:59.810Z,22.70
2019-03-28T22:21:28.266Z,22.50
2019-03-28T22:23:56.896Z,22.07
2019-03-28T22:26:25.173Z,22.20
2019-03-28T22:28:53.402Z,23.00
2019-03-28T22:31:21.354Z,22.30
2019-03-28T22:33:49.977Z,22.03
2019-03-28T22:36:18.745Z,22.30
2019-03-28T22:38:47.069Z,22.07
2019-03-28T22:41:15.637Z,22.37
2019-03-28T22:43:44.218Z,23.80
2019-03-28T22:46:12.145Z,22.40
2019-03-28T22:48:40.159Z,23.27
2019-03-28T22:51:08.374Z,20.10
2019-03-28T22:53:36.334Z,21.73
2019-03-28T22:56:04.357Z,22.10
2019-03-28T22:58:32.818Z,22.07
2019-03-28T23:01:01.039Z,21.73
2019-03-28T23:03:29.449Z,21.80
2019-03-28T23:05:57.749Z,21.60
2019-03-28T23:08:26.361Z,21.40
2019-03-28T23:10:54.669Z,21.10
2019-03-28T23:13:22.960Z,20.90
2019-03-28T23:15:51.014Z,20.30
2019-03-28T23:18:18.930Z,20.33
2019-03-28T23:20:47.191Z,21.13
2019-03-28T23:23:15.823Z,20.10
2019-03-28T23:25:44.104Z,20.50
2019-03-28T23:28:12.686Z,21.17
2019-03-28T23:30:41.360Z,20.87
2019-03-28T23:33:09.953Z,19.60
2019-03-28T23:35:38.222Z,19.67
2019-03-28T23:38:06.659Z,20.20
2019-03-28T23:40:35.198Z,19.80
2019-03-28T23:43:03.416Z,17.80
2019-03-28T23:45:31.593Z,19.53
2019-03-28T23:48:00.010Z,19.27
2019-03-28T23:50:28.818Z,19.80
2019-03-28T23:52:56.761Z,18.80
2019-03-28T23:55:25.260Z,19.30
2019-03-28T23:57:54.538Z,19.13
